EFRO

Rovaniemi Airport

Rovaniemi, Finland
METAR EFRO 220020Z AUTO 30009KT CAVOK M17/M19 Q1023
Observed Flight Rules
Feb-22 @ 00:20 UTC (4 hours ago) Visual Flight Rules
Wind Visibility Clouds
300° at 9 knots 10,000+ meters
  • Clear skies
Temperatures Readings
Current -17°C / 1°F
Dewpoint -19°C / -2°F
Humidity 85%
Altimeter 30.21" Hg
Pressure 1023 hPa
Elevation 201
METAR EFRO 220020Z AUTO 30009KT CAVOK M17/M19 Q1023
Observed Flight Rules
Feb-22 @ 00:20 UTC
(4 hours ago)
VFR
Wind Visibility
300° at 9 knots 10,000+ meters
Clouds
  • Clear skies
Temperature Dewpoint
-17°C / 1°F -19°C / -2°F
Humidity Altimeter Pressure
85% 30.21" Hg 1023 hPa